sensor_id;sensor_type;location;lat;lon;timestamp;temperature;humidity
8214;DHT22;4148;47.974;7.824;2023-12-20T00:00:41;7.40;99.90
8214;DHT22;4148;47.974;7.824;2023-12-20T00:03:09;7.40;99.90
8214;DHT22;4148;47.974;7.824;2023-12-20T00:05:37;7.40;99.90
8214;DHT22;4148;47.974;7.824;2023-12-20T00:08:07;7.40;99.90
8214;DHT22;4148;47.974;7.824;2023-12-20T00:10:35;7.40;1.00
8214;DHT22;4148;47.974;7.824;2023-12-20T00:13:04;7.40;1.00
8214;DHT22;4148;47.974;7.824;2023-12-20T00:15:33;7.40;1.00
8214;DHT22;4148;47.974;7.824;2023-12-20T00:18:03;7.50;95.50
8214;DHT22;4148;47.974;7.824;2023-12-20T00:20:31;7.40;1.00
8214;DHT22;4148;47.974;7.824;2023-12-20T00:22:59;7.40;33.20
8214;DHT22;4148;47.974;7.824;2023-12-20T00:25:27;7.50;1.00
8214;DHT22;4148;47.974;7.824;2023-12-20T00:27:55;7.40;1.00
8214;DHT22;4148;47.974;7.824;2023-12-20T00:30:23;7.50;99.90
8214;DHT22;4148;47.974;7.824;2023-12-20T00:32:51;7.50;1.00
8214;DHT22;4148;47.974;7.824;2023-12-20T00:35:20;7.50;1.00
8214;DHT22;4148;47.974;7.824;2023-12-20T00:37:48;7.50;1.00
8214;DHT22;4148;47.974;7.824;2023-12-20T00:40:16;7.40;51.00
8214;DHT22;4148;47.974;7.824;2023-12-20T00:42:44;7.40;99.90
8214;DHT22;4148;47.974;7.824;2023-12-20T00:45:13;7.40;99.90
8214;DHT22;4148;47.974;7.824;2023-12-20T00:47:41;7.40;99.90
8214;DHT22;4148;47.974;7.824;2023-12-20T00:50:10;7.30;1.00
8214;DHT22;4148;47.974;7.824;2023-12-20T00:52:39;7.20;99.90
8214;DHT22;4148;47.974;7.824;2023-12-20T00:55:07;7.20;99.90
8214;DHT22;4148;47.974;7.824;2023-12-20T00:57:35;7.10;99.90
8214;DHT22;4148;47.974;7.824;2023-12-20T01:00:04;7.10;99.90
8214;DHT22;4148;47.974;7.824;2023-12-20T01:02:32;7.00;1.00
8214;DHT22;4148;47.974;7.824;2023-12-20T01:05:00;6.90;1.00
8214;DHT22;4148;47.974;7.824;2023-12-20T01:07:28;6.90;1.00
8214;DHT22;4148;47.974;7.824;2023-12-20T01:09:57;6.90;1.00
8214;DHT22;4148;47.974;7.824;2023-12-20T01:12:25;6.90;1.00
8214;DHT22;4148;47.974;7.824;2023-12-20T01:14:53;6.90;1.00
8214;DHT22;4148;47.974;7.824;2023-12-20T01:17:20;6.80;1.00
8214;DHT22;4148;47.974;7.824;2023-12-20T01:19:48;6.80;1.00
8214;DHT22;4148;47.974;7.824;2023-12-20T01:22:16;6.80;1.00
8214;DHT22;4148;47.974;7.824;2023-12-20T01:24:44;6.80;1.00
8214;DHT22;4148;47.974;7.824;2023-12-20T01:27:13;6.80;1.00
8214;DHT22;4148;47.974;7.824;2023-12-20T01:29:41;6.70;1.00
8214;DHT22;4148;47.974;7.824;2023-12-20T01:32:09;6.70;1.00
8214;DHT22;4148;47.974;7.824;2023-12-20T01:34:37;6.70;1.00
8214;DHT22;4148;47.974;7.824;2023-12-20T01:37:05;6.70;1.00
8214;DHT22;4148;47.974;7.824;2023-12-20T01:39:33;6.70;1.00
8214;DHT22;4148;47.974;7.824;2023-12-20T01:42:00;6.60;1.00
8214;DHT22;4148;47.974;7.824;2023-12-20T01:44:30;6.60;1.00
8214;DHT22;4148;47.974;7.824;2023-12-20T01:46:58;6.60;1.00
8214;DHT22;4148;47.974;7.824;2023-12-20T01:49:26;6.60;1.00
8214;DHT22;4148;47.974;7.824;2023-12-20T01:51:54;6.60;1.00
8214;DHT22;4148;47.974;7.824;2023-12-20T01:54:23;6.60;1.00
8214;DHT22;4148;47.974;7.824;2023-12-20T01:56:51;6.60;1.00
8214;DHT22;4148;47.974;7.824;2023-12-20T01:59:20;6.60;1.00
8214;DHT22;4148;47.974;7.824;2023-12-20T02:01:49;6.60;1.00
8214;DHT22;4148;47.974;7.824;2023-12-20T02:04:18;6.60;1.00
8214;DHT22;4148;47.974;7.824;2023-12-20T02:06:46;6.60;1.00
8214;DHT22;4148;47.974;7.824;2023-12-20T02:09:15;6.60;1.00
8214;DHT22;4148;47.974;7.824;2023-12-20T02:11:43;6.60;1.00
8214;DHT22;4148;47.974;7.824;2023-12-20T02:14:11;6.60;1.00
8214;DHT22;4148;47.974;7.824;2023-12-20T02:16:39;6.60;1.00
8214;DHT22;4148;47.974;7.824;2023-12-20T02:19:13;6.50;1.00
8214;DHT22;4148;47.974;7.824;2023-12-20T02:21:43;6.50;1.00
8214;DHT22;4148;47.974;7.824;2023-12-20T02:24:11;6.50;1.00
8214;DHT22;4148;47.974;7.824;2023-12-20T02:26:39;6.50;1.00
8214;DHT22;4148;47.974;7.824;2023-12-20T02:29:12;6.50;1.00
8214;DHT22;4148;47.974;7.824;2023-12-20T02:31:40;6.50;1.00
8214;DHT22;4148;47.974;7.824;2023-12-20T02:34:08;6.50;1.00
8214;DHT22;4148;47.974;7.824;2023-12-20T02:36:36;6.50;1.00
8214;DHT22;4148;47.974;7.824;2023-12-20T02:39:05;6.50;1.00
8214;DHT22;4148;47.974;7.824;2023-12-20T02:41:33;6.50;1.00
8214;DHT22;4148;47.974;7.824;2023-12-20T02:44:01;6.50;1.00
8214;DHT22;4148;47.974;7.824;2023-12-20T02:46:29;6.50;1.00
8214;DHT22;4148;47.974;7.824;2023-12-20T02:48:57;6.50;1.00
8214;DHT22;4148;47.974;7.824;2023-12-20T02:51:25;6.50;1.00
8214;DHT22;4148;47.974;7.824;2023-12-20T02:53:53;6.50;1.00
8214;DHT22;4148;47.974;7.824;2023-12-20T02:56:22;6.40;1.00
8214;DHT22;4148;47.974;7.824;2023-12-20T02:58:50;6.40;1.00
8214;DHT22;4148;47.974;7.824;2023-12-20T03:01:18;6.40;1.00
8214;DHT22;4148;47.974;7.824;2023-12-20T03:03:46;6.50;1.00
8214;DHT22;4148;47.974;7.824;2023-12-20T03:06:17;6.40;1.00
8214;DHT22;4148;47.974;7.824;2023-12-20T03:08:46;6.40;1.00
8214;DHT22;4148;47.974;7.824;2023-12-20T03:11:13;6.40;1.00
8214;DHT22;4148;47.974;7.824;2023-12-20T03:13:43;6.50;1.00
8214;DHT22;4148;47.974;7.824;2023-12-20T03:16:11;6.40;1.00
8214;DHT22;4148;47.974;7.824;2023-12-20T03:18:40;6.40;1.00
8214;DHT22;4148;47.974;7.824;2023-12-20T03:21:08;6.40;1.00
8214;DHT22;4148;47.974;7.824;2023-12-20T03:23:36;6.40;1.00
8214;DHT22;4148;47.974;7.824;2023-12-20T03:26:07;6.40;1.00
8214;DHT22;4148;47.974;7.824;2023-12-20T03:28:36;6.30;1.00
8214;DHT22;4148;47.974;7.824;2023-12-20T03:31:05;6.30;1.00
8214;DHT22;4148;47.974;7.824;2023-12-20T03:33:33;6.30;1.00
8214;DHT22;4148;47.974;7.824;2023-12-20T03:36:01;6.30;1.00
8214;DHT22;4148;47.974;7.824;2023-12-20T03:38:29;6.30;1.00
8214;DHT22;4148;47.974;7.824;2023-12-20T03:40:56;6.30;1.00
8214;DHT22;4148;47.974;7.824;2023-12-20T03:43:24;6.30;1.00
8214;DHT22;4148;47.974;7.824;2023-12-20T03:45:52;6.30;1.00
8214;DHT22;4148;47.974;7.824;2023-12-20T03:48:21;6.30;1.00
8214;DHT22;4148;47.974;7.824;2023-12-20T03:50:49;6.30;1.00
8214;DHT22;4148;47.974;7.824;2023-12-20T03:53:17;6.30;1.00
8214;DHT22;4148;47.974;7.824;2023-12-20T03:55:45;6.30;1.00
8214;DHT22;4148;47.974;7.824;2023-12-20T03:58:13;6.20;1.00
8214;DHT22;4148;47.974;7.824;2023-12-20T04:00:41;6.20;1.00
8214;DHT22;4148;47.974;7.824;2023-12-20T04:03:09;6.20;1.00
8214;DHT22;4148;47.974;7.824;2023-12-20T04:05:40;6.20;1.00
8214;DHT22;4148;47.974;7.824;2023-12-20T04:08:09;6.30;1.00
8214;DHT22;4148;47.974;7.824;2023-12-20T04:10:37;6.30;1.00
8214;DHT22;4148;47.974;7.824;2023-12-20T04:13:05;6.20;1.00
8214;DHT22;4148;47.974;7.824;2023-12-20T04:15:33;6.30;1.00
8214;DHT22;4148;47.974;7.824;2023-12-20T04:18:01;6.30;1.00
8214;DHT22;4148;47.974;7.824;2023-12-20T04:20:29;6.30;1.00
8214;DHT22;4148;47.974;7.824;2023-12-20T04:22:58;6.30;1.00
8214;DHT22;4148;47.974;7.824;2023-12-20T04:25:26;6.30;1.00
8214;DHT22;4148;47.974;7.824;2023-12-20T04:27:54;6.30;1.00
8214;DHT22;4148;47.974;7.824;2023-12-20T04:30:22;6.30;1.00
8214;DHT22;4148;47.974;7.824;2023-12-20T04:32:50;6.30;1.00
8214;DHT22;4148;47.974;7.824;2023-12-20T04:35:18;6.30;1.00
8214;DHT22;4148;47.974;7.824;2023-12-20T04:37:46;6.30;1.00
8214;DHT22;4148;47.974;7.824;2023-12-20T04:40:17;6.30;1.00
8214;DHT22;4148;47.974;7.824;2023-12-20T04:42:45;6.30;1.00
8214;DHT22;4148;47.974;7.824;2023-12-20T04:45:13;6.30;1.00
8214;DHT22;4148;47.974;7.824;2023-12-20T04:47:42;6.40;1.00
8214;DHT22;4148;47.974;7.824;2023-12-20T04:50:10;6.40;1.00
8214;DHT22;4148;47.974;7.824;2023-12-20T04:52:40;6.40;1.00
8214;DHT22;4148;47.974;7.824;2023-12-20T04:55:08;6.40;1.00
8214;DHT22;4148;47.974;7.824;2023-12-20T04:57:37;6.40;1.00
8214;DHT22;4148;47.974;7.824;2023-12-20T05:00:07;6.40;1.00
8214;DHT22;4148;47.974;7.824;2023-12-20T05:02:35;6.40;1.00
8214;DHT22;4148;47.974;7.824;2023-12-20T05:05:04;6.40;1.00
8214;DHT22;4148;47.974;7.824;2023-12-20T05:07:31;6.40;1.00
8214;DHT22;4148;47.974;7.824;2023-12-20T05:09:59;6.40;1.00
8214;DHT22;4148;47.974;7.824;2023-12-20T05:12:27;6.40;1.00
8214;DHT22;4148;47.974;7.824;2023-12-20T05:14:57;6.40;1.00
8214;DHT22;4148;47.974;7.824;2023-12-20T05:17:25;6.50;1.00
8214;DHT22;4148;47.974;7.824;2023-12-20T05:19:53;6.50;1.00
8214;DHT22;4148;47.974;7.824;2023-12-20T05:22:21;6.50;1.00
8214;DHT22;4148;47.974;7.824;2023-12-20T05:24:49;6.50;1.00
8214;DHT22;4148;47.974;7.824;2023-12-20T05:27:17;6.50;1.00
8214;DHT22;4148;47.974;7.824;2023-12-20T05:29:45;6.50;1.00
8214;DHT22;4148;47.974;7.824;2023-12-20T05:32:14;6.50;1.00
8214;DHT22;4148;47.974;7.824;2023-12-20T05:34:42;6.50;1.00
8214;DHT22;4148;47.974;7.824;2023-12-20T05:37:10;6.50;1.00
8214;DHT22;4148;47.974;7.824;2023-12-20T05:39:38;6.50;1.00
8214;DHT22;4148;47.974;7.824;2023-12-20T05:42:06;6.50;1.00
8214;DHT22;4148;47.974;7.824;2023-12-20T05:44:34;6.60;1.00
8214;DHT22;4148;47.974;7.824;2023-12-20T05:47:02;6.50;1.00
8214;DHT22;4148;47.974;7.824;2023-12-20T05:49:31;6.60;1.00
8214;DHT22;4148;47.974;7.824;2023-12-20T05:51:59;6.50;1.00
8214;DHT22;4148;47.974;7.824;2023-12-20T05:54:27;6.60;1.00
8214;DHT22;4148;47.974;7.824;2023-12-20T05:56:55;6.60;1.00
8214;DHT22;4148;47.974;7.824;2023-12-20T05:59:23;6.60;1.00
8214;DHT22;4148;47.974;7.824;2023-12-20T06:01:51;6.60;1.00
8214;DHT22;4148;47.974;7.824;2023-12-20T06:04:19;6.60;1.00
8214;DHT22;4148;47.974;7.824;2023-12-20T06:06:50;6.50;1.00
8214;DHT22;4148;47.974;7.824;2023-12-20T06:09:19;6.50;1.00
8214;DHT22;4148;47.974;7.824;2023-12-20T06:11:46;6.50;1.00
8214;DHT22;4148;47.974;7.824;2023-12-20T06:14:14;6.50;1.00
8214;DHT22;4148;47.974;7.824;2023-12-20T06:16:42;6.50;1.00
8214;DHT22;4148;47.974;7.824;2023-12-20T06:19:10;6.60;1.00
8214;DHT22;4148;47.974;7.824;2023-12-20T06:21:38;6.60;1.00
8214;DHT22;4148;47.974;7.824;2023-12-20T06:24:11;6.70;1.00
8214;DHT22;4148;47.974;7.824;2023-12-20T06:26:39;6.60;1.00
8214;DHT22;4148;47.974;7.824;2023-12-20T06:29:07;6.70;1.00
8214;DHT22;4148;47.974;7.824;2023-12-20T06:31:35;6.60;1.00
8214;DHT22;4148;47.974;7.824;2023-12-20T06:34:02;6.60;1.00
8214;DHT22;4148;47.974;7.824;2023-12-20T06:36:30;6.60;1.00
8214;DHT22;4148;47.974;7.824;2023-12-20T06:38:58;6.70;1.00
8214;DHT22;4148;47.974;7.824;2023-12-20T06:41:28;6.70;1.00
8214;DHT22;4148;47.974;7.824;2023-12-20T06:43:56;6.70;1.00
8214;DHT22;4148;47.974;7.824;2023-12-20T06:46:24;6.70;1.00
8214;DHT22;4148;47.974;7.824;2023-12-20T06:48:52;6.70;1.00
8214;DHT22;4148;47.974;7.824;2023-12-20T06:51:20;6.70;1.00
8214;DHT22;4148;47.974;7.824;2023-12-20T06:53:52;6.70;1.00
8214;DHT22;4148;47.974;7.824;2023-12-20T06:56:18;6.70;1.00
8214;DHT22;4148;47.974;7.824;2023-12-20T06:58:48;6.70;1.00
8214;DHT22;4148;47.974;7.824;2023-12-20T07:01:16;6.70;1.00
8214;DHT22;4148;47.974;7.824;2023-12-20T07:03:44;6.70;1.00
8214;DHT22;4148;47.974;7.824;2023-12-20T07:06:12;6.70;1.00
8214;DHT22;4148;47.974;7.824;2023-12-20T07:08:43;6.70;1.00
8214;DHT22;4148;47.974;7.824;2023-12-20T07:11:11;6.70;1.00
8214;DHT22;4148;47.974;7.824;2023-12-20T07:13:39;6.70;1.00
8214;DHT22;4148;47.974;7.824;2023-12-20T07:16:08;6.60;1.00
8214;DHT22;4148;47.974;7.824;2023-12-20T07:18:37;6.70;1.00
8214;DHT22;4148;47.974;7.824;2023-12-20T07:21:05;6.70;1.00
8214;DHT22;4148;47.974;7.824;2023-12-20T07:23:34;6.70;1.00
8214;DHT22;4148;47.974;7.824;2023-12-20T07:26:02;6.70;1.00
8214;DHT22;4148;47.974;7.824;2023-12-20T07:28:31;6.70;1.00
8214;DHT22;4148;47.974;7.824;2023-12-20T07:30:59;6.70;1.00
8214;DHT22;4148;47.974;7.824;2023-12-20T07:33:28;6.70;1.00
8214;DHT22;4148;47.974;7.824;2023-12-20T07:36:04;6.70;1.00
8214;DHT22;4148;47.974;7.824;2023-12-20T07:38:32;6.70;1.00
8214;DHT22;4148;47.974;7.824;2023-12-20T07:41:00;6.60;1.00
8214;DHT22;4148;47.974;7.824;2023-12-20T07:43:28;6.70;1.00
8214;DHT22;4148;47.974;7.824;2023-12-20T07:45:55;6.70;1.00
8214;DHT22;4148;47.974;7.824;2023-12-20T07:48:23;6.70;1.00
8214;DHT22;4148;47.974;7.824;2023-12-20T07:50:53;6.60;1.00
8214;DHT22;4148;47.974;7.824;2023-12-20T07:53:20;6.60;1.00
8214;DHT22;4148;47.974;7.824;2023-12-20T07:55:48;6.60;1.00
8214;DHT22;4148;47.974;7.824;2023-12-20T07:58:16;6.70;1.00
8214;DHT22;4148;47.974;7.824;2023-12-20T08:00:44;6.60;1.00
8214;DHT22;4148;47.974;7.824;2023-12-20T08:03:12;6.70;1.00
8214;DHT22;4148;47.974;7.824;2023-12-20T08:05:40;6.70;1.00
8214;DHT22;4148;47.974;7.824;2023-12-20T08:08:09;6.70;1.00
8214;DHT22;4148;47.974;7.824;2023-12-20T08:10:37;6.70;1.00
8214;DHT22;4148;47.974;7.824;2023-12-20T08:13:05;6.80;1.00
8214;DHT22;4148;47.974;7.824;2023-12-20T08:15:33;6.80;1.00
8214;DHT22;4148;47.974;7.824;2023-12-20T08:18:01;6.80;1.00
8214;DHT22;4148;47.974;7.824;2023-12-20T08:20:29;6.80;1.00
8214;DHT22;4148;47.974;7.824;2023-12-20T08:23:06;6.80;1.00
8214;DHT22;4148;47.974;7.824;2023-12-20T08:25:35;6.80;1.00
8214;DHT22;4148;47.974;7.824;2023-12-20T08:28:04;6.70;1.00
8214;DHT22;4148;47.974;7.824;2023-12-20T08:30:32;6.70;1.00
8214;DHT22;4148;47.974;7.824;2023-12-20T08:33:00;6.70;1.00
8214;DHT22;4148;47.974;7.824;2023-12-20T08:35:29;6.80;1.00
8214;DHT22;4148;47.974;7.824;2023-12-20T08:37:57;6.80;1.00
8214;DHT22;4148;47.974;7.824;2023-12-20T08:40:25;6.80;1.00
8214;DHT22;4148;47.974;7.824;2023-12-20T08:42:54;6.80;1.00
8214;DHT22;4148;47.974;7.824;2023-12-20T08:45:22;6.80;1.00
8214;DHT22;4148;47.974;7.824;2023-12-20T08:47:50;6.80;1.00
8214;DHT22;4148;47.974;7.824;2023-12-20T08:50:19;6.80;1.00
8214;DHT22;4148;47.974;7.824;2023-12-20T08:52:47;6.80;1.00
8214;DHT22;4148;47.974;7.824;2023-12-20T08:55:15;6.80;1.00
8214;DHT22;4148;47.974;7.824;2023-12-20T08:57:44;6.80;1.00
8214;DHT22;4148;47.974;7.824;2023-12-20T09:00:15;6.80;1.00
8214;DHT22;4148;47.974;7.824;2023-12-20T09:02:43;6.80;1.00
8214;DHT22;4148;47.974;7.824;2023-12-20T09:05:11;6.80;1.00
8214;DHT22;4148;47.974;7.824;2023-12-20T09:07:39;6.80;1.00
8214;DHT22;4148;47.974;7.824;2023-12-20T09:10:07;6.80;1.00
8214;DHT22;4148;47.974;7.824;2023-12-20T09:12:35;6.80;1.00
8214;DHT22;4148;47.974;7.824;2023-12-20T09:15:06;6.90;1.00
8214;DHT22;4148;47.974;7.824;2023-12-20T09:17:35;6.90;1.00
8214;DHT22;4148;47.974;7.824;2023-12-20T09:20:04;6.90;1.00
8214;DHT22;4148;47.974;7.824;2023-12-20T09:22:34;6.90;1.00
8214;DHT22;4148;47.974;7.824;2023-12-20T09:25:03;7.00;1.00
8214;DHT22;4148;47.974;7.824;2023-12-20T09:27:31;7.00;1.00
8214;DHT22;4148;47.974;7.824;2023-12-20T09:29:58;6.90;1.00
8214;DHT22;4148;47.974;7.824;2023-12-20T09:32:26;6.90;1.00
8214;DHT22;4148;47.974;7.824;2023-12-20T09:34:56;6.90;1.00
8214;DHT22;4148;47.974;7.824;2023-12-20T09:37:26;6.90;1.00
8214;DHT22;4148;47.974;7.824;2023-12-20T09:39:54;6.90;1.00
8214;DHT22;4148;47.974;7.824;2023-12-20T09:42:28;6.90;1.00
8214;DHT22;4148;47.974;7.824;2023-12-20T09:44:59;6.90;1.00
8214;DHT22;4148;47.974;7.824;2023-12-20T09:47:29;6.90;1.00
8214;DHT22;4148;47.974;7.824;2023-12-20T09:49:59;6.80;1.00
8214;DHT22;4148;47.974;7.824;2023-12-20T09:52:27;6.90;1.00
8214;DHT22;4148;47.974;7.824;2023-12-20T09:54:57;6.90;1.00
8214;DHT22;4148;47.974;7.824;2023-12-20T09:57:25;7.00;1.00
8214;DHT22;4148;47.974;7.824;2023-12-20T09:59:53;7.00;1.00
8214;DHT22;4148;47.974;7.824;2023-12-20T10:02:25;7.00;1.00
8214;DHT22;4148;47.974;7.824;2023-12-20T10:04:54;7.10;1.00
8214;DHT22;4148;47.974;7.824;2023-12-20T10:07:23;7.10;1.00
8214;DHT22;4148;47.974;7.824;2023-12-20T10:09:54;7.10;1.00
8214;DHT22;4148;47.974;7.824;2023-12-20T10:12:22;7.20;1.00
8214;DHT22;4148;47.974;7.824;2023-12-20T10:14:50;7.20;99.90
8214;DHT22;4148;47.974;7.824;2023-12-20T10:17:18;7.10;99.90
8214;DHT22;4148;47.974;7.824;2023-12-20T10:19:46;7.10;99.90
8214;DHT22;4148;47.974;7.824;2023-12-20T10:22:15;7.20;99.90
8214;DHT22;4148;47.974;7.824;2023-12-20T10:24:45;7.20;99.90
8214;DHT22;4148;47.974;7.824;2023-12-20T10:27:14;7.20;99.90
8214;DHT22;4148;47.974;7.824;2023-12-20T10:29:44;7.20;99.90
8214;DHT22;4148;47.974;7.824;2023-12-20T10:32:22;7.20;1.00
8214;DHT22;4148;47.974;7.824;2023-12-20T10:34:51;7.30;1.00
8214;DHT22;4148;47.974;7.824;2023-12-20T10:37:19;7.30;99.90
8214;DHT22;4148;47.974;7.824;2023-12-20T10:39:50;7.30;99.90
8214;DHT22;4148;47.974;7.824;2023-12-20T10:42:20;7.20;99.90
8214;DHT22;4148;47.974;7.824;2023-12-20T10:44:49;7.20;6.50
8214;DHT22;4148;47.974;7.824;2023-12-20T10:47:18;7.20;99.90
8214;DHT22;4148;47.974;7.824;2023-12-20T10:49:45;7.10;52.80
8214;DHT22;4148;47.974;7.824;2023-12-20T10:52:14;7.10;99.90
8214;DHT22;4148;47.974;7.824;2023-12-20T10:54:44;7.10;99.90
8214;DHT22;4148;47.974;7.824;2023-12-20T10:57:16;7.10;99.90
8214;DHT22;4148;47.974;7.824;2023-12-20T10:59:47;7.10;1.00
8214;DHT22;4148;47.974;7.824;2023-12-20T11:02:17;7.10;99.90
8214;DHT22;4148;47.974;7.824;2023-12-20T11:04:51;7.10;99.90
8214;DHT22;4148;47.974;7.824;2023-12-20T11:07:25;7.20;44.30
8214;DHT22;4148;47.974;7.824;2023-12-20T11:09:58;7.30;99.90
8214;DHT22;4148;47.974;7.824;2023-12-20T11:12:37;7.30;99.90
8214;DHT22;4148;47.974;7.824;2023-12-20T11:15:06;7.20;99.90
8214;DHT22;4148;47.974;7.824;2023-12-20T11:17:35;7.20;99.90
8214;DHT22;4148;47.974;7.824;2023-12-20T11:20:07;7.40;1.00
8214;DHT22;4148;47.974;7.824;2023-12-20T11:22:37;7.60;99.90
8214;DHT22;4148;47.974;7.824;2023-12-20T11:25:10;7.60;99.90
8214;DHT22;4148;47.974;7.824;2023-12-20T11:27:42;7.70;99.90
8214;DHT22;4148;47.974;7.824;2023-12-20T11:30:14;7.50;1.00
8214;DHT22;4148;47.974;7.824;2023-12-20T11:32:45;7.70;99.90
8214;DHT22;4148;47.974;7.824;2023-12-20T11:35:18;8.10;99.90
8214;DHT22;4148;47.974;7.824;2023-12-20T11:37:47;8.40;1.00
8214;DHT22;4148;47.974;7.824;2023-12-20T11:40:17;8.80;1.00
8214;DHT22;4148;47.974;7.824;2023-12-20T11:42:49;9.40;99.90
8214;DHT22;4148;47.974;7.824;2023-12-20T11:45:19;9.80;59.00
8214;DHT22;4148;47.974;7.824;2023-12-20T11:47:50;9.80;1.00
8214;DHT22;4148;47.974;7.824;2023-12-20T11:50:18;9.70;1.00
8214;DHT22;4148;47.974;7.824;2023-12-20T11:52:47;9.80;1.00
8214;DHT22;4148;47.974;7.824;2023-12-20T11:55:16;10.00;1.00
8214;DHT22;4148;47.974;7.824;2023-12-20T11:57:44;10.00;1.00
8214;DHT22;4148;47.974;7.824;2023-12-20T12:00:15;10.20;1.00
8214;DHT22;4148;47.974;7.824;2023-12-20T12:05:14;10.90;1.00
8214;DHT22;4148;47.974;7.824;2023-12-20T12:07:42;10.90;1.00
8214;DHT22;4148;47.974;7.824;2023-12-20T12:10:10;11.00;1.00
8214;DHT22;4148;47.974;7.824;2023-12-20T12:12:38;11.40;1.00
8214;DHT22;4148;47.974;7.824;2023-12-20T12:15:07;11.30;99.90
8214;DHT22;4148;47.974;7.824;2023-12-20T12:17:37;10.80;99.90
8214;DHT22;4148;47.974;7.824;2023-12-20T12:20:06;10.70;99.90
8214;DHT22;4148;47.974;7.824;2023-12-20T12:22:35;10.50;99.90
8214;DHT22;4148;47.974;7.824;2023-12-20T12:25:10;10.40;99.90
8214;DHT22;4148;47.974;7.824;2023-12-20T12:27:40;10.20;99.90
8214;DHT22;4148;47.974;7.824;2023-12-20T12:30:09;10.00;99.90
8214;DHT22;4148;47.974;7.824;2023-12-20T12:32:40;10.00;99.90
8214;DHT22;4148;47.974;7.824;2023-12-20T12:35:09;9.90;99.90
8214;DHT22;4148;47.974;7.824;2023-12-20T12:37:38;9.90;99.90
8214;DHT22;4148;47.974;7.824;2023-12-20T12:40:09;9.80;99.90
8214;DHT22;4148;47.974;7.824;2023-12-20T12:42:37;9.50;99.90
8214;DHT22;4148;47.974;7.824;2023-12-20T12:45:06;9.30;99.90
8214;DHT22;4148;47.974;7.824;2023-12-20T12:47:35;9.20;99.90
8214;DHT22;4148;47.974;7.824;2023-12-20T12:50:05;9.10;99.90
8214;DHT22;4148;47.974;7.824;2023-12-20T12:52:33;8.90;99.90
8214;DHT22;4148;47.974;7.824;2023-12-20T12:55:02;8.80;99.90
8214;DHT22;4148;47.974;7.824;2023-12-20T12:57:31;8.90;99.90
8214;DHT22;4148;47.974;7.824;2023-12-20T13:00:01;8.80;99.90
8214;DHT22;4148;47.974;7.824;2023-12-20T13:02:30;8.80;99.90
8214;DHT22;4148;47.974;7.824;2023-12-20T13:04:59;8.70;99.90
8214;DHT22;4148;47.974;7.824;2023-12-20T13:07:29;8.60;99.90
8214;DHT22;4148;47.974;7.824;2023-12-20T13:09:57;8.50;99.90
8214;DHT22;4148;47.974;7.824;2023-12-20T13:12:26;8.40;99.90
8214;DHT22;4148;47.974;7.824;2023-12-20T13:14:53;8.40;99.90
8214;DHT22;4148;47.974;7.824;2023-12-20T13:17:21;8.30;99.90
8214;DHT22;4148;47.974;7.824;2023-12-20T13:19:49;8.30;99.90
8214;DHT22;4148;47.974;7.824;2023-12-20T13:22:17;8.20;99.90
8214;DHT22;4148;47.974;7.824;2023-12-20T13:24:46;8.20;1.00
8214;DHT22;4148;47.974;7.824;2023-12-20T13:27:14;8.20;1.00
8214;DHT22;4148;47.974;7.824;2023-12-20T13:29:42;8.20;1.00
8214;DHT22;4148;47.974;7.824;2023-12-20T13:32:10;8.10;1.00
8214;DHT22;4148;47.974;7.824;2023-12-20T13:34:38;8.00;1.00
8214;DHT22;4148;47.974;7.824;2023-12-20T13:37:06;7.90;1.00
8214;DHT22;4148;47.974;7.824;2023-12-20T13:39:34;7.90;1.00
8214;DHT22;4148;47.974;7.824;2023-12-20T13:42:04;7.90;1.00
8214;DHT22;4148;47.974;7.824;2023-12-20T13:44:31;7.90;1.00
8214;DHT22;4148;47.974;7.824;2023-12-20T13:47:00;7.80;1.00
8214;DHT22;4148;47.974;7.824;2023-12-20T13:49:30;7.80;1.00
8214;DHT22;4148;47.974;7.824;2023-12-20T13:51:58;7.80;1.00
8214;DHT22;4148;47.974;7.824;2023-12-20T13:54:26;7.80;1.00
8214;DHT22;4148;47.974;7.824;2023-12-20T13:56:53;7.70;1.00
8214;DHT22;4148;47.974;7.824;2023-12-20T13:59:39;7.70;1.00
8214;DHT22;4148;47.974;7.824;2023-12-20T14:02:07;7.70;1.00
8214;DHT22;4148;47.974;7.824;2023-12-20T14:04:35;7.70;1.00
8214;DHT22;4148;47.974;7.824;2023-12-20T14:07:09;7.70;1.00
8214;DHT22;4148;47.974;7.824;2023-12-20T14:09:39;7.70;1.00
8214;DHT22;4148;47.974;7.824;2023-12-20T14:12:12;7.70;1.00
8214;DHT22;4148;47.974;7.824;2023-12-20T14:14:41;7.70;1.00
8214;DHT22;4148;47.974;7.824;2023-12-20T14:17:09;7.70;1.00
8214;DHT22;4148;47.974;7.824;2023-12-20T14:19:36;7.70;1.00
8214;DHT22;4148;47.974;7.824;2023-12-20T14:22:06;7.70;1.00
8214;DHT22;4148;47.974;7.824;2023-12-20T14:24:35;7.70;1.00
8214;DHT22;4148;47.974;7.824;2023-12-20T14:27:03;7.70;1.00
8214;DHT22;4148;47.974;7.824;2023-12-20T14:29:31;7.70;1.00
8214;DHT22;4148;47.974;7.824;2023-12-20T14:32:00;7.60;1.00
8214;DHT22;4148;47.974;7.824;2023-12-20T14:34:30;7.50;1.00
8214;DHT22;4148;47.974;7.824;2023-12-20T14:36:58;7.50;1.00
8214;DHT22;4148;47.974;7.824;2023-12-20T14:39:25;7.50;1.00
8214;DHT22;4148;47.974;7.824;2023-12-20T14:41:53;7.40;1.00
8214;DHT22;4148;47.974;7.824;2023-12-20T14:44:22;7.40;1.00
8214;DHT22;4148;47.974;7.824;2023-12-20T14:46:50;7.40;1.00
8214;DHT22;4148;47.974;7.824;2023-12-20T14:49:19;7.40;1.00
8214;DHT22;4148;47.974;7.824;2023-12-20T14:51:47;7.30;1.00
8214;DHT22;4148;47.974;7.824;2023-12-20T14:54:15;7.30;1.00
8214;DHT22;4148;47.974;7.824;2023-12-20T14:56:43;7.20;1.00
8214;DHT22;4148;47.974;7.824;2023-12-20T14:59:12;7.20;1.00
8214;DHT22;4148;47.974;7.824;2023-12-20T15:01:40;7.20;1.00
8214;DHT22;4148;47.974;7.824;2023-12-20T15:04:08;7.10;1.00
8214;DHT22;4148;47.974;7.824;2023-12-20T15:06:38;7.10;1.00
8214;DHT22;4148;47.974;7.824;2023-12-20T15:09:05;7.00;1.00
8214;DHT22;4148;47.974;7.824;2023-12-20T15:11:35;7.00;44.20
8214;DHT22;4148;47.974;7.824;2023-12-20T15:14:03;7.00;1.00
8214;DHT22;4148;47.974;7.824;2023-12-20T15:16:31;7.00;3.60
8214;DHT22;4148;47.974;7.824;2023-12-20T15:18:59;6.90;23.50
8214;DHT22;4148;47.974;7.824;2023-12-20T15:21:27;7.00;82.30
8214;DHT22;4148;47.974;7.824;2023-12-20T15:24:00;6.90;70.00
8214;DHT22;4148;47.974;7.824;2023-12-20T15:26:38;6.80;99.90
8214;DHT22;4148;47.974;7.824;2023-12-20T15:29:06;6.80;94.50
8214;DHT22;4148;47.974;7.824;2023-12-20T15:31:36;6.70;99.90
8214;DHT22;4148;47.974;7.824;2023-12-20T15:34:04;6.60;99.90
8214;DHT22;4148;47.974;7.824;2023-12-20T15:36:32;6.60;99.90
8214;DHT22;4148;47.974;7.824;2023-12-20T15:39:03;6.50;99.90
8214;DHT22;4148;47.974;7.824;2023-12-20T15:41:31;6.50;99.90
8214;DHT22;4148;47.974;7.824;2023-12-20T15:43:59;6.50;99.90
8214;DHT22;4148;47.974;7.824;2023-12-20T15:46:26;6.40;99.90
8214;DHT22;4148;47.974;7.824;2023-12-20T15:48:54;6.30;99.90
8214;DHT22;4148;47.974;7.824;2023-12-20T15:51:23;6.30;1.00
8214;DHT22;4148;47.974;7.824;2023-12-20T15:53:50;6.20;1.00
8214;DHT22;4148;47.974;7.824;2023-12-20T15:56:19;6.10;54.00
8214;DHT22;4148;47.974;7.824;2023-12-20T15:58:47;6.10;1.00
8214;DHT22;4148;47.974;7.824;2023-12-20T16:01:15;6.10;9.60
8214;DHT22;4148;47.974;7.824;2023-12-20T16:03:43;6.00;1.00
8214;DHT22;4148;47.974;7.824;2023-12-20T16:06:22;6.10;1.00
8214;DHT22;4148;47.974;7.824;2023-12-20T16:08:50;6.00;29.80
8214;DHT22;4148;47.974;7.824;2023-12-20T16:11:19;6.00;1.00
8214;DHT22;4148;47.974;7.824;2023-12-20T16:13:47;6.00;1.00
8214;DHT22;4148;47.974;7.824;2023-12-20T16:16:15;5.90;1.00
8214;DHT22;4148;47.974;7.824;2023-12-20T16:18:43;5.80;1.00
8214;DHT22;4148;47.974;7.824;2023-12-20T16:21:11;5.80;99.90
8214;DHT22;4148;47.974;7.824;2023-12-20T16:23:39;5.70;90.90
8214;DHT22;4148;47.974;7.824;2023-12-20T16:26:07;5.70;99.90
8214;DHT22;4148;47.974;7.824;2023-12-20T16:28:36;5.80;99.90
8214;DHT22;4148;47.974;7.824;2023-12-20T16:31:04;5.80;99.90
8214;DHT22;4148;47.974;7.824;2023-12-20T16:33:32;5.80;3.50
8214;DHT22;4148;47.974;7.824;2023-12-20T16:36:00;5.80;1.00
8214;DHT22;4148;47.974;7.824;2023-12-20T16:38:28;5.90;1.00
8214;DHT22;4148;47.974;7.824;2023-12-20T16:40:56;5.80;1.00